sensor_id;sensor_type;location;lat;lon;timestamp;P1;durP1;ratioP1;P2;durP2;ratioP2
77466;SDS011;66564;42.482;25.548;2023-01-19T00:02:31;29.10;;;6.15;;
77466;SDS011;66564;42.482;25.548;2023-01-19T00:06:02;20.35;;;4.80;;
77466;SDS011;66564;42.482;25.548;2023-01-19T00:09:25;34.53;;;6.78;;
77466;SDS011;66564;42.482;25.548;2023-01-19T00:12:53;26.45;;;6.03;;
77466;SDS011;66564;42.482;25.548;2023-01-19T00:16:20;23.10;;;5.40;;
77466;SDS011;66564;42.482;25.548;2023-01-19T00:19:45;26.83;;;5.55;;
77466;SDS011;66564;42.482;25.548;2023-01-19T00:22:11;27.67;;;6.75;;
77466;SDS011;66564;42.482;25.548;2023-01-19T00:25:36;24.13;;;6.32;;
77466;SDS011;66564;42.482;25.548;2023-01-19T00:29:01;29.27;;;5.75;;
77466;SDS011;66564;42.482;25.548;2023-01-19T00:32:26;24.98;;;5.03;;
77466;SDS011;66564;42.482;25.548;2023-01-19T00:35:52;34.20;;;6.65;;
77466;SDS011;66564;42.482;25.548;2023-01-19T00:39:19;24.05;;;4.68;;
77466;SDS011;66564;42.482;25.548;2023-01-19T00:42:44;24.83;;;6.10;;
77466;SDS011;66564;42.482;25.548;2023-01-19T00:46:09;29.67;;;5.30;;
77466;SDS011;66564;42.482;25.548;2023-01-19T00:49:35;31.60;;;5.43;;
77466;SDS011;66564;42.482;25.548;2023-01-19T00:53:02;28.10;;;5.35;;
77466;SDS011;66564;42.482;25.548;2023-01-19T00:56:30;26.88;;;5.18;;
77466;SDS011;66564;42.482;25.548;2023-01-19T00:59:55;21.63;;;5.15;;
77466;SDS011;66564;42.482;25.548;2023-01-19T01:03:01;28.10;;;5.68;;
77466;SDS011;66564;42.482;25.548;2023-01-19T01:06:26;25.77;;;5.45;;
77466;SDS011;66564;42.482;25.548;2023-01-19T01:09:52;22.23;;;4.82;;
77466;SDS011;66564;42.482;25.548;2023-01-19T01:13:26;19.95;;;6.05;;
77466;SDS011;66564;42.482;25.548;2023-01-19T01:16:51;28.45;;;5.68;;
77466;SDS011;66564;42.482;25.548;2023-01-19T01:20:17;28.95;;;5.28;;
77466;SDS011;66564;42.482;25.548;2023-01-19T01:23:41;31.33;;;5.70;;
77466;SDS011;66564;42.482;25.548;2023-01-19T01:27:08;29.30;;;5.75;;
77466;SDS011;66564;42.482;25.548;2023-01-19T01:30:36;30.60;;;6.03;;
77466;SDS011;66564;42.482;25.548;2023-01-19T01:33:05;21.70;;;6.30;;
77466;SDS011;66564;42.482;25.548;2023-01-19T01:36:32;34.60;;;7.03;;
77466;SDS011;66564;42.482;25.548;2023-01-19T01:39:57;35.70;;;5.75;;
77466;SDS011;66564;42.482;25.548;2023-01-19T01:43:22;30.20;;;5.65;;
77466;SDS011;66564;42.482;25.548;2023-01-19T01:46:53;22.08;;;5.05;;
77466;SDS011;66564;42.482;25.548;2023-01-19T01:49:19;31.73;;;6.20;;
77466;SDS011;66564;42.482;25.548;2023-01-19T01:51:48;32.47;;;7.15;;
77466;SDS011;66564;42.482;25.548;2023-01-19T01:54:24;32.38;;;5.65;;
77466;SDS011;66564;42.482;25.548;2023-01-19T01:56:54;21.55;;;4.57;;
77466;SDS011;66564;42.482;25.548;2023-01-19T01:59:25;28.58;;;6.38;;
77466;SDS011;66564;42.482;25.548;2023-01-19T02:02:00;29.98;;;5.32;;
77466;SDS011;66564;42.482;25.548;2023-01-19T02:04:51;38.78;;;5.20;;
77466;SDS011;66564;42.482;25.548;2023-01-19T02:07:23;21.13;;;4.68;;
77466;SDS011;66564;42.482;25.548;2023-01-19T02:10:23;29.40;;;5.38;;
77466;SDS011;66564;42.482;25.548;2023-01-19T02:13:06;37.20;;;6.57;;
77466;SDS011;66564;42.482;25.548;2023-01-19T02:15:45;27.60;;;6.95;;
77466;SDS011;66564;42.482;25.548;2023-01-19T02:18:12;28.73;;;5.93;;
77466;SDS011;66564;42.482;25.548;2023-01-19T02:20:38;27.35;;;5.05;;
77466;SDS011;66564;42.482;25.548;2023-01-19T02:23:07;38.35;;;6.47;;
77466;SDS011;66564;42.482;25.548;2023-01-19T02:25:44;34.03;;;6.22;;
77466;SDS011;66564;42.482;25.548;2023-01-19T02:28:10;28.23;;;7.15;;
77466;SDS011;66564;42.482;25.548;2023-01-19T02:30:36;28.10;;;6.00;;
77466;SDS011;66564;42.482;25.548;2023-01-19T02:33:04;30.58;;;7.15;;
77466;SDS011;66564;42.482;25.548;2023-01-19T02:35:29;29.40;;;5.72;;
77466;SDS011;66564;42.482;25.548;2023-01-19T02:37:58;24.23;;;5.60;;
77466;SDS011;66564;42.482;25.548;2023-01-19T02:40:25;27.33;;;5.55;;
77466;SDS011;66564;42.482;25.548;2023-01-19T02:42:52;35.42;;;7.18;;
77466;SDS011;66564;42.482;25.548;2023-01-19T02:45:25;19.27;;;5.03;;
77466;SDS011;66564;42.482;25.548;2023-01-19T02:47:51;22.00;;;5.60;;
77466;SDS011;66564;42.482;25.548;2023-01-19T03:05:30;36.92;;;7.22;;
77466;SDS011;66564;42.482;25.548;2023-01-19T03:10:51;40.72;;;6.50;;
77466;SDS011;66564;42.482;25.548;2023-01-19T03:13:32;39.63;;;7.65;;
77466;SDS011;66564;42.482;25.548;2023-01-19T03:18:25;24.70;;;5.17;;
77466;SDS011;66564;42.482;25.548;2023-01-19T03:20:56;30.23;;;5.30;;
77466;SDS011;66564;42.482;25.548;2023-01-19T03:23:25;37.25;;;7.13;;
77466;SDS011;66564;42.482;25.548;2023-01-19T03:25:54;31.67;;;6.60;;
77466;SDS011;66564;42.482;25.548;2023-01-19T03:28:21;32.08;;;5.38;;
77466;SDS011;66564;42.482;25.548;2023-01-19T03:30:53;22.38;;;5.30;;
77466;SDS011;66564;42.482;25.548;2023-01-19T03:33:23;27.08;;;5.05;;
77466;SDS011;66564;42.482;25.548;2023-01-19T03:35:54;36.45;;;6.03;;
77466;SDS011;66564;42.482;25.548;2023-01-19T03:38:27;39.85;;;6.13;;
77466;SDS011;66564;42.482;25.548;2023-01-19T03:40:57;34.45;;;6.95;;
77466;SDS011;66564;42.482;25.548;2023-01-19T03:43:26;40.53;;;5.70;;
77466;SDS011;66564;42.482;25.548;2023-01-19T03:45:53;39.42;;;6.38;;
77466;SDS011;66564;42.482;25.548;2023-01-19T03:48:20;29.67;;;5.80;;
77466;SDS011;66564;42.482;25.548;2023-01-19T03:50:48;37.17;;;7.03;;
77466;SDS011;66564;42.482;25.548;2023-01-19T03:53:15;30.10;;;6.47;;
77466;SDS011;66564;42.482;25.548;2023-01-19T03:55:43;23.65;;;5.57;;
77466;SDS011;66564;42.482;25.548;2023-01-19T03:58:11;38.55;;;7.40;;
77466;SDS011;66564;42.482;25.548;2023-01-19T04:00:37;24.13;;;5.93;;
77466;SDS011;66564;42.482;25.548;2023-01-19T04:03:04;31.25;;;6.93;;
77466;SDS011;66564;42.482;25.548;2023-01-19T04:05:30;35.45;;;6.22;;
77466;SDS011;66564;42.482;25.548;2023-01-19T04:07:56;28.02;;;5.82;;
77466;SDS011;66564;42.482;25.548;2023-01-19T04:10:22;36.63;;;7.60;;
77466;SDS011;66564;42.482;25.548;2023-01-19T04:12:48;27.63;;;6.30;;
77466;SDS011;66564;42.482;25.548;2023-01-19T04:15:14;32.10;;;6.40;;
77466;SDS011;66564;42.482;25.548;2023-01-19T04:17:42;33.92;;;6.40;;
77466;SDS011;66564;42.482;25.548;2023-01-19T04:20:08;31.70;;;5.72;;
77466;SDS011;66564;42.482;25.548;2023-01-19T04:22:34;31.25;;;5.82;;
77466;SDS011;66564;42.482;25.548;2023-01-19T04:24:59;25.23;;;6.80;;
77466;SDS011;66564;42.482;25.548;2023-01-19T04:27:25;32.85;;;6.80;;
77466;SDS011;66564;42.482;25.548;2023-01-19T04:29:51;29.10;;;5.75;;
77466;SDS011;66564;42.482;25.548;2023-01-19T04:32:16;29.30;;;6.22;;
77466;SDS011;66564;42.482;25.548;2023-01-19T04:34:42;34.63;;;6.72;;
77466;SDS011;66564;42.482;25.548;2023-01-19T04:37:08;39.88;;;6.25;;
77466;SDS011;66564;42.482;25.548;2023-01-19T04:39:34;29.27;;;6.57;;
77466;SDS011;66564;42.482;25.548;2023-01-19T04:41:59;32.30;;;4.70;;
77466;SDS011;66564;42.482;25.548;2023-01-19T04:44:25;33.58;;;6.30;;
77466;SDS011;66564;42.482;25.548;2023-01-19T04:46:52;35.05;;;5.60;;
77466;SDS011;66564;42.482;25.548;2023-01-19T04:49:18;32.35;;;5.72;;
77466;SDS011;66564;42.482;25.548;2023-01-19T04:51:43;36.28;;;6.65;;
77466;SDS011;66564;42.482;25.548;2023-01-19T04:54:09;28.58;;;5.43;;
77466;SDS011;66564;42.482;25.548;2023-01-19T04:56:34;31.05;;;8.10;;
77466;SDS011;66564;42.482;25.548;2023-01-19T04:59:00;28.98;;;5.45;;
77466;SDS011;66564;42.482;25.548;2023-01-19T05:01:26;25.45;;;5.15;;
77466;SDS011;66564;42.482;25.548;2023-01-19T05:03:51;24.65;;;5.32;;
77466;SDS011;66564;42.482;25.548;2023-01-19T05:06:17;34.92;;;6.97;;
77466;SDS011;66564;42.482;25.548;2023-01-19T05:08:43;28.10;;;6.05;;
77466;SDS011;66564;42.482;25.548;2023-01-19T05:11:08;30.55;;;7.40;;
77466;SDS011;66564;42.482;25.548;2023-01-19T05:13:34;37.30;;;6.97;;
77466;SDS011;66564;42.482;25.548;2023-01-19T05:16:00;49.88;;;6.80;;
77466;SDS011;66564;42.482;25.548;2023-01-19T05:18:26;30.92;;;6.38;;
77466;SDS011;66564;42.482;25.548;2023-01-19T05:20:53;38.70;;;6.38;;
77466;SDS011;66564;42.482;25.548;2023-01-19T05:23:18;40.58;;;6.55;;
77466;SDS011;66564;42.482;25.548;2023-01-19T05:25:44;38.58;;;7.65;;
77466;SDS011;66564;42.482;25.548;2023-01-19T05:28:10;39.97;;;6.45;;
77466;SDS011;66564;42.482;25.548;2023-01-19T05:30:39;42.88;;;7.25;;
77466;SDS011;66564;42.482;25.548;2023-01-19T05:33:04;44.03;;;7.18;;
77466;SDS011;66564;42.482;25.548;2023-01-19T05:35:30;28.48;;;8.05;;
77466;SDS011;66564;42.482;25.548;2023-01-19T05:37:55;31.58;;;6.00;;
77466;SDS011;66564;42.482;25.548;2023-01-19T05:40:21;28.80;;;6.18;;
77466;SDS011;66564;42.482;25.548;2023-01-19T05:42:46;37.85;;;5.78;;
77466;SDS011;66564;42.482;25.548;2023-01-19T05:45:12;34.63;;;6.75;;
77466;SDS011;66564;42.482;25.548;2023-01-19T05:47:37;39.75;;;6.65;;
77466;SDS011;66564;42.482;25.548;2023-01-19T05:50:04;30.55;;;6.97;;
77466;SDS011;66564;42.482;25.548;2023-01-19T05:52:30;29.50;;;5.90;;
77466;SDS011;66564;42.482;25.548;2023-01-19T05:54:55;31.00;;;6.15;;
77466;SDS011;66564;42.482;25.548;2023-01-19T05:57:21;42.60;;;6.25;;
77466;SDS011;66564;42.482;25.548;2023-01-19T05:59:47;27.35;;;6.35;;
77466;SDS011;66564;42.482;25.548;2023-01-19T06:02:12;41.25;;;6.82;;
77466;SDS011;66564;42.482;25.548;2023-01-19T06:04:37;34.47;;;5.97;;
77466;SDS011;66564;42.482;25.548;2023-01-19T06:07:03;29.63;;;6.47;;
77466;SDS011;66564;42.482;25.548;2023-01-19T06:09:31;40.70;;;7.38;;
77466;SDS011;66564;42.482;25.548;2023-01-19T06:11:56;29.15;;;6.43;;
77466;SDS011;66564;42.482;25.548;2023-01-19T06:14:23;32.53;;;5.72;;
77466;SDS011;66564;42.482;25.548;2023-01-19T06:16:50;30.90;;;6.53;;
77466;SDS011;66564;42.482;25.548;2023-01-19T06:19:16;24.08;;;5.18;;
77466;SDS011;66564;42.482;25.548;2023-01-19T06:21:41;37.42;;;5.65;;
77466;SDS011;66564;42.482;25.548;2023-01-19T06:24:14;34.63;;;6.07;;
77466;SDS011;66564;42.482;25.548;2023-01-19T06:26:40;29.58;;;5.28;;
77466;SDS011;66564;42.482;25.548;2023-01-19T06:29:08;24.98;;;5.28;;
77466;SDS011;66564;42.482;25.548;2023-01-19T06:31:35;24.40;;;6.03;;
77466;SDS011;66564;42.482;25.548;2023-01-19T06:34:01;37.53;;;6.60;;
77466;SDS011;66564;42.482;25.548;2023-01-19T06:36:27;37.10;;;7.45;;
77466;SDS011;66564;42.482;25.548;2023-01-19T06:38:53;29.85;;;5.82;;
77466;SDS011;66564;42.482;25.548;2023-01-19T06:41:18;28.55;;;7.07;;
77466;SDS011;66564;42.482;25.548;2023-01-19T06:43:44;34.47;;;5.88;;
77466;SDS011;66564;42.482;25.548;2023-01-19T06:46:09;37.83;;;8.75;;
77466;SDS011;66564;42.482;25.548;2023-01-19T06:48:35;31.90;;;7.32;;
77466;SDS011;66564;42.482;25.548;2023-01-19T06:51:00;44.05;;;6.88;;
77466;SDS011;66564;42.482;25.548;2023-01-19T06:53:26;40.40;;;7.40;;
77466;SDS011;66564;42.482;25.548;2023-01-19T06:55:57;45.92;;;8.32;;
77466;SDS011;66564;42.482;25.548;2023-01-19T06:58:26;36.53;;;7.28;;
77466;SDS011;66564;42.482;25.548;2023-01-19T07:00:53;31.60;;;6.20;;
77466;SDS011;66564;42.482;25.548;2023-01-19T07:03:19;31.80;;;5.93;;
77466;SDS011;66564;42.482;25.548;2023-01-19T07:06:44;38.10;;;7.20;;
77466;SDS011;66564;42.482;25.548;2023-01-19T07:10:09;41.85;;;6.45;;
77466;SDS011;66564;42.482;25.548;2023-01-19T07:13:35;33.25;;;5.47;;
77466;SDS011;66564;42.482;25.548;2023-01-19T07:17:00;42.35;;;7.32;;
77466;SDS011;66564;42.482;25.548;2023-01-19T07:20:25;34.42;;;7.18;;
77466;SDS011;66564;42.482;25.548;2023-01-19T07:23:50;41.10;;;6.60;;
77466;SDS011;66564;42.482;25.548;2023-01-19T07:27:15;25.65;;;6.35;;
77466;SDS011;66564;42.482;25.548;2023-01-19T07:30:41;40.22;;;6.88;;
77466;SDS011;66564;42.482;25.548;2023-01-19T07:34:06;35.50;;;6.32;;
77466;SDS011;66564;42.482;25.548;2023-01-19T07:37:31;28.50;;;5.78;;
77466;SDS011;66564;42.482;25.548;2023-01-19T07:41:00;41.22;;;6.57;;
77466;SDS011;66564;42.482;25.548;2023-01-19T07:47:30;28.50;;;7.07;;
77466;SDS011;66564;42.482;25.548;2023-01-19T07:50:59;36.70;;;6.60;;
77466;SDS011;66564;42.482;25.548;2023-01-19T07:57:29;31.45;;;5.50;;
77466;SDS011;66564;42.482;25.548;2023-01-19T07:59:55;40.65;;;6.35;;
77466;SDS011;66564;42.482;25.548;2023-01-19T08:03:20;35.97;;;5.75;;
77466;SDS011;66564;42.482;25.548;2023-01-19T08:06:45;32.42;;;5.80;;
77466;SDS011;66564;42.482;25.548;2023-01-19T08:10:14;33.50;;;5.97;;
77466;SDS011;66564;42.482;25.548;2023-01-19T08:13:36;35.38;;;7.22;;
77466;SDS011;66564;42.482;25.548;2023-01-19T08:17:02;25.95;;;5.00;;
77466;SDS011;66564;42.482;25.548;2023-01-19T08:20:27;37.88;;;6.85;;
77466;SDS011;66564;42.482;25.548;2023-01-19T08:24:10;24.40;;;4.95;;
77466;SDS011;66564;42.482;25.548;2023-01-19T08:27:20;25.90;;;6.25;;
77466;SDS011;66564;42.482;25.548;2023-01-19T08:30:46;34.35;;;6.80;;
77466;SDS011;66564;42.482;25.548;2023-01-19T08:34:14;32.83;;;6.72;;
77466;SDS011;66564;42.482;25.548;2023-01-19T08:37:39;34.83;;;6.28;;
77466;SDS011;66564;42.482;25.548;2023-01-19T08:41:04;36.30;;;5.60;;
77466;SDS011;66564;42.482;25.548;2023-01-19T08:44:30;25.25;;;6.10;;
77466;SDS011;66564;42.482;25.548;2023-01-19T08:47:56;34.47;;;5.18;;
77466;SDS011;66564;42.482;25.548;2023-01-19T08:51:20;30.58;;;7.20;;
77466;SDS011;66564;42.482;25.548;2023-01-19T08:54:46;29.65;;;4.75;;
77466;SDS011;66564;42.482;25.548;2023-01-19T08:58:11;27.75;;;5.57;;
77466;SDS011;66564;42.482;25.548;2023-01-19T09:01:37;42.50;;;7.00;;
77466;SDS011;66564;42.482;25.548;2023-01-19T09:05:03;30.23;;;5.68;;
77466;SDS011;66564;42.482;25.548;2023-01-19T09:08:28;24.33;;;5.88;;
77466;SDS011;66564;42.482;25.548;2023-01-19T09:10:54;26.77;;;5.90;;
77466;SDS011;66564;42.482;25.548;2023-01-19T09:13:19;28.52;;;5.85;;
77466;SDS011;66564;42.482;25.548;2023-01-19T09:15:45;26.20;;;5.65;;
77466;SDS011;66564;42.482;25.548;2023-01-19T09:18:11;31.25;;;5.63;;
77466;SDS011;66564;42.482;25.548;2023-01-19T09:20:39;29.75;;;6.07;;
77466;SDS011;66564;42.482;25.548;2023-01-19T09:23:06;18.05;;;5.00;;
77466;SDS011;66564;42.482;25.548;2023-01-19T09:25:36;23.98;;;5.30;;
77466;SDS011;66564;42.482;25.548;2023-01-19T09:28:03;33.63;;;7.20;;
77466;SDS011;66564;42.482;25.548;2023-01-19T09:30:33;23.90;;;5.32;;
77466;SDS011;66564;42.482;25.548;2023-01-19T09:33:05;25.15;;;5.18;;
77466;SDS011;66564;42.482;25.548;2023-01-19T09:35:32;26.05;;;6.15;;
77466;SDS011;66564;42.482;25.548;2023-01-19T09:37:58;29.90;;;6.85;;
77466;SDS011;66564;42.482;25.548;2023-01-19T11:09:48;17.48;;;4.13;;
77466;SDS011;66564;42.482;25.548;2023-01-19T11:12:38;24.02;;;4.40;;
77466;SDS011;66564;42.482;25.548;2023-01-19T11:15:15;20.67;;;4.63;;
77466;SDS011;66564;42.482;25.548;2023-01-19T11:17:46;25.67;;;5.45;;
77466;SDS011;66564;42.482;25.548;2023-01-19T11:20:20;16.20;;;4.68;;
77466;SDS011;66564;42.482;25.548;2023-01-19T11:22:48;23.77;;;5.15;;
77466;SDS011;66564;42.482;25.548;2023-01-19T11:25:32;24.77;;;5.72;;
77466;SDS011;66564;42.482;25.548;2023-01-19T11:27:59;16.20;;;4.65;;
77466;SDS011;66564;42.482;25.548;2023-01-19T11:30:25;16.70;;;4.00;;
77466;SDS011;66564;42.482;25.548;2023-01-19T11:32:51;20.77;;;4.10;;
77466;SDS011;66564;42.482;25.548;2023-01-19T11:35:29;21.35;;;3.88;;
77466;SDS011;66564;42.482;25.548;2023-01-19T11:40:44;23.00;;;3.95;;
77466;SDS011;66564;42.482;25.548;2023-01-19T11:43:21;20.50;;;4.15;;
77466;SDS011;66564;42.482;25.548;2023-01-19T11:45:48;20.77;;;4.40;;
77466;SDS011;66564;42.482;25.548;2023-01-19T11:48:22;19.35;;;4.85;;
77466;SDS011;66564;42.482;25.548;2023-01-19T11:50:52;21.83;;;3.97;;
77466;SDS011;66564;42.482;25.548;2023-01-19T11:53:22;16.23;;;4.05;;
77466;SDS011;66564;42.482;25.548;2023-01-19T11:55:56;18.45;;;4.00;;
77466;SDS011;66564;42.482;25.548;2023-01-19T11:58:28;17.20;;;4.05;;
77466;SDS011;66564;42.482;25.548;2023-01-19T12:00:57;17.77;;;4.65;;
77466;SDS011;66564;42.482;25.548;2023-01-19T12:03:35;20.75;;;3.25;;
77466;SDS011;66564;42.482;25.548;2023-01-19T12:06:18;16.98;;;3.72;;
77466;SDS011;66564;42.482;25.548;2023-01-19T12:09:47;20.42;;;3.75;;
77466;SDS011;66564;42.482;25.548;2023-01-19T12:11:55;23.02;;;5.60;;
77466;SDS011;66564;42.482;25.548;2023-01-19T12:17:59;15.10;;;3.65;;
77466;SDS011;66564;42.482;25.548;2023-01-19T12:20:42;22.98;;;4.30;;
77466;SDS011;66564;42.482;25.548;2023-01-19T12:26:19;10.95;;;2.85;;
77466;SDS011;66564;42.482;25.548;2023-01-19T12:28:59;23.77;;;4.85;;
77466;SDS011;66564;42.482;25.548;2023-01-19T12:31:38;15.32;;;4.90;;
77466;SDS011;66564;42.482;25.548;2023-01-19T12:34:26;10.02;;;3.45;;
77466;SDS011;66564;42.482;25.548;2023-01-19T12:37:04;16.33;;;3.45;;
77466;SDS011;66564;42.482;25.548;2023-01-19T12:39:31;16.17;;;3.95;;
77466;SDS011;66564;42.482;25.548;2023-01-19T12:42:03;15.82;;;3.63;;
77466;SDS011;66564;42.482;25.548;2023-01-19T12:44:32;11.68;;;3.10;;
77466;SDS011;66564;42.482;25.548;2023-01-19T12:46:58;13.18;;;3.25;;
77466;SDS011;66564;42.482;25.548;2023-01-19T12:52:34;11.35;;;2.95;;
77466;SDS011;66564;42.482;25.548;2023-01-19T12:57:37;12.90;;;2.45;;
77466;SDS011;66564;42.482;25.548;2023-01-19T13:00:07;16.38;;;3.38;;
77466;SDS011;66564;42.482;25.548;2023-01-19T13:02:55;14.25;;;2.88;;
77466;SDS011;66564;42.482;25.548;2023-01-19T13:13:24;14.57;;;3.85;;
77466;SDS011;66564;42.482;25.548;2023-01-19T13:15:50;14.70;;;2.80;;
77466;SDS011;66564;42.482;25.548;2023-01-19T13:18:29;10.15;;;2.42;;
77466;SDS011;66564;42.482;25.548;2023-01-19T13:26:27;10.25;;;3.53;;
77466;SDS011;66564;42.482;25.548;2023-01-19T13:29:01;13.55;;;3.10;;
77466;SDS011;66564;42.482;25.548;2023-01-19T13:31:38;11.05;;;2.63;;
77466;SDS011;66564;42.482;25.548;2023-01-19T13:34:16;11.77;;;3.38;;
77466;SDS011;66564;42.482;25.548;2023-01-19T13:36:44;22.13;;;3.63;;
77466;SDS011;66564;42.482;25.548;2023-01-19T13:39:56;16.52;;;2.90;;
77466;SDS011;66564;42.482;25.548;2023-01-19T13:42:06;11.60;;;3.67;;
77466;SDS011;66564;42.482;25.548;2023-01-19T13:44:43;10.93;;;3.10;;
77466;SDS011;66564;42.482;25.548;2023-01-19T13:47:23;18.85;;;3.90;;
77466;SDS011;66564;42.482;25.548;2023-01-19T13:49:56;19.95;;;3.80;;
77466;SDS011;66564;42.482;25.548;2023-01-19T13:54:51;11.23;;;3.03;;
77466;SDS011;66564;42.482;25.548;2023-01-19T13:57:24;11.70;;;3.05;;
77466;SDS011;66564;42.482;25.548;2023-01-19T14:02:41;10.38;;;3.42;;
77466;SDS011;66564;42.482;25.548;2023-01-19T14:10:35;10.93;;;3.60;;
77466;SDS011;66564;42.482;25.548;2023-01-19T14:13:13;16.00;;;2.92;;
77466;SDS011;66564;42.482;25.548;2023-01-19T14:15:39;11.02;;;2.95;;
77466;SDS011;66564;42.482;25.548;2023-01-19T14:24:05;9.63;;;2.60;;
77466;SDS011;66564;42.482;25.548;2023-01-19T14:26:40;12.40;;;2.78;;
77466;SDS011;66564;42.482;25.548;2023-01-19T14:37:12;8.90;;;2.50;;
77466;SDS011;66564;42.482;25.548;2023-01-19T14:39:51;11.35;;;2.92;;
77466;SDS011;66564;42.482;25.548;2023-01-19T14:42:42;10.82;;;2.60;;
77466;SDS011;66564;42.482;25.548;2023-01-19T14:45:18;8.90;;;2.58;;
77466;SDS011;66564;42.482;25.548;2023-01-19T14:47:54;13.30;;;3.17;;
77466;SDS011;66564;42.482;25.548;2023-01-19T14:50:25;10.02;;;2.78;;
77466;SDS011;66564;42.482;25.548;2023-01-19T14:53:11;17.40;;;3.58;;
77466;SDS011;66564;42.482;25.548;2023-01-19T14:55:47;7.72;;;3.22;;
77466;SDS011;66564;42.482;25.548;2023-01-19T14:58:15;10.45;;;3.17;;
77466;SDS011;66564;42.482;25.548;2023-01-19T15:00:43;12.13;;;3.65;;
77466;SDS011;66564;42.482;25.548;2023-01-19T15:03:09;11.43;;;2.88;;
77466;SDS011;66564;42.482;25.548;2023-01-19T15:05:35;6.88;;;2.65;;
77466;SDS011;66564;42.482;25.548;2023-01-19T15:08:02;10.80;;;3.10;;
77466;SDS011;66564;42.482;25.548;2023-01-19T15:10:28;8.13;;;4.35;;
77466;SDS011;66564;42.482;25.548;2023-01-19T15:12:55;9.50;;;2.60;;
77466;SDS011;66564;42.482;25.548;2023-01-19T15:15:31;10.32;;;2.50;;
77466;SDS011;66564;42.482;25.548;2023-01-19T15:17:58;12.50;;;3.40;;
77466;SDS011;66564;42.482;25.548;2023-01-19T15:20:27;15.05;;;3.35;;
77466;SDS011;66564;42.482;25.548;2023-01-19T15:22:53;12.52;;;2.50;;
77466;SDS011;66564;42.482;25.548;2023-01-19T15:25:20;10.77;;;3.47;;
77466;SDS011;66564;42.482;25.548;2023-01-19T15:27:50;11.57;;;3.00;;
77466;SDS011;66564;42.482;25.548;2023-01-19T15:30:16;14.88;;;2.65;;
77466;SDS011;66564;42.482;25.548;2023-01-19T15:32:42;14.15;;;4.10;;
77466;SDS011;66564;42.482;25.548;2023-01-19T15:35:26;7.55;;;2.63;;
77466;SDS011;66564;42.482;25.548;2023-01-19T15:37:51;17.45;;;3.35;;
77466;SDS011;66564;42.482;25.548;2023-01-19T15:40:18;14.93;;;3.20;;
77466;SDS011;66564;42.482;25.548;2023-01-19T15:42:46;10.07;;;3.20;;
77466;SDS011;66564;42.482;25.548;2023-01-19T15:48:01;9.02;;;3.30;;
77466;SDS011;66564;42.482;25.548;2023-01-19T15:50:32;14.88;;;3.28;;
77466;SDS011;66564;42.482;25.548;2023-01-19T15:52:59;10.40;;;2.90;;
77466;SDS011;66564;42.482;25.548;2023-01-19T15:55:25;12.93;;;3.72;;
77466;SDS011;66564;42.482;25.548;2023-01-19T15:57:50;9.40;;;2.70;;
77466;SDS011;66564;42.482;25.548;2023-01-19T16:00:16;8.13;;;2.55;;
77466;SDS011;66564;42.482;25.548;2023-01-19T16:02:42;20.20;;;3.38;;
77466;SDS011;66564;42.482;25.548;2023-01-19T16:05:07;11.38;;;2.83;;
77466;SDS011;66564;42.482;25.548;2023-01-19T16:07:33;20.23;;;3.05;;
77466;SDS011;66564;42.482;25.548;2023-01-19T16:09:59;8.82;;;3.10;;
77466;SDS011;66564;42.482;25.548;2023-01-19T16:12:25;17.25;;;3.72;;
77466;SDS011;66564;42.482;25.548;2023-01-19T16:14:50;13.25;;;3.40;;
77466;SDS011;66564;42.482;25.548;2023-01-19T16:17:16;11.90;;;3.80;;
77466;SDS011;66564;42.482;25.548;2023-01-19T16:19:41;13.57;;;3.08;;
77466;SDS011;66564;42.482;25.548;2023-01-19T16:22:07;12.18;;;2.85;;
77466;SDS011;66564;42.482;25.548;2023-01-19T16:24:35;13.70;;;3.20;;
77466;SDS011;66564;42.482;25.548;2023-01-19T16:27:00;15.48;;;3.95;;
77466;SDS011;66564;42.482;25.548;2023-01-19T16:29:27;11.10;;;2.83;;
77466;SDS011;66564;42.482;25.548;2023-01-19T16:31:53;11.40;;;3.17;;
77466;SDS011;66564;42.482;25.548;2023-01-19T16:34:19;15.07;;;4.97;;
77466;SDS011;66564;42.482;25.548;2023-01-19T16:36:44;16.52;;;3.75;;
77466;SDS011;66564;42.482;25.548;2023-01-19T16:39:13;17.52;;;3.83;;
77466;SDS011;66564;42.482;25.548;2023-01-19T16:41:39;10.32;;;3.28;;
77466;SDS011;66564;42.482;25.548;2023-01-19T16:44:05;14.90;;;3.22;;
77466;SDS011;66564;42.482;25.548;2023-01-19T16:46:32;9.75;;;3.10;;
77466;SDS011;66564;42.482;25.548;2023-01-19T16:49:03;17.80;;;3.63;;
77466;SDS011;66564;42.482;25.548;2023-01-19T16:51:30;14.00;;;2.67;;
77466;SDS011;66564;42.482;25.548;2023-01-19T16:53:56;10.00;;;2.80;;
77466;SDS011;66564;42.482;25.548;2023-01-19T16:56:21;10.70;;;3.38;;
77466;SDS011;66564;42.482;25.548;2023-01-19T16:58:47;9.95;;;2.60;;
77466;SDS011;66564;42.482;25.548;2023-01-19T17:01:16;15.82;;;3.05;;
77466;SDS011;66564;42.482;25.548;2023-01-19T17:03:43;10.35;;;2.95;;
77466;SDS011;66564;42.482;25.548;2023-01-19T17:06:09;13.20;;;3.03;;
77466;SDS011;66564;42.482;25.548;2023-01-19T17:08:36;10.88;;;3.45;;
77466;SDS011;66564;42.482;25.548;2023-01-19T17:11:15;12.55;;;3.35;;
77466;SDS011;66564;42.482;25.548;2023-01-19T17:14:27;10.48;;;2.88;;
77466;SDS011;66564;42.482;25.548;2023-01-19T17:16:37;14.10;;;3.85;;
77466;SDS011;66564;42.482;25.548;2023-01-19T17:19:03;12.52;;;3.40;;
77466;SDS011;66564;42.482;25.548;2023-01-19T17:21:30;10.25;;;3.20;;
77466;SDS011;66564;42.482;25.548;2023-01-19T17:23:56;14.90;;;3.40;;
77466;SDS011;66564;42.482;25.548;2023-01-19T17:26:23;16.55;;;3.95;;
77466;SDS011;66564;42.482;25.548;2023-01-19T17:28:59;11.45;;;3.78;;
77466;SDS011;66564;42.482;25.548;2023-01-19T17:31:26;18.08;;;3.25;;
77466;SDS011;66564;42.482;25.548;2023-01-19T17:33:52;8.57;;;2.83;;
77466;SDS011;66564;42.482;25.548;2023-01-19T17:36:19;13.75;;;2.78;;
77466;SDS011;66564;42.482;25.548;2023-01-19T17:38:49;10.43;;;2.75;;
77466;SDS011;66564;42.482;25.548;2023-01-19T17:41:18;9.65;;;3.63;;
77466;SDS011;66564;42.482;25.548;2023-01-19T17:43:46;14.73;;;3.60;;
77466;SDS011;66564;42.482;25.548;2023-01-19T17:46:13;7.75;;;3.15;;
77466;SDS011;66564;42.482;25.548;2023-01-19T17:48:39;15.30;;;3.33;;
77466;SDS011;66564;42.482;25.548;2023-01-19T17:51:08;11.80;;;3.60;;
77466;SDS011;66564;42.482;25.548;2023-01-19T17:53:36;10.77;;;3.08;;
77466;SDS011;66564;42.482;25.548;2023-01-19T17:56:04;11.07;;;3.22;;
77466;SDS011;66564;42.482;25.548;2023-01-19T17:58:38;15.50;;;4.22;;
77466;SDS011;66564;42.482;25.548;2023-01-19T18:01:11;13.88;;;3.33;;
77466;SDS011;66564;42.482;25.548;2023-01-19T18:03:42;10.88;;;3.38;;
77466;SDS011;66564;42.482;25.548;2023-01-19T18:06:08;13.63;;;3.00;;
77466;SDS011;66564;42.482;25.548;2023-01-19T18:08:35;15.55;;;3.40;;
77466;SDS011;66564;42.482;25.548;2023-01-19T18:11:03;17.52;;;3.53;;
77466;SDS011;66564;42.482;25.548;2023-01-19T18:13:28;9.13;;;3.55;;
77466;SDS011;66564;42.482;25.548;2023-01-19T18:16:01;14.88;;;3.65;;
77466;SDS011;66564;42.482;25.548;2023-01-19T18:18:28;15.27;;;3.33;;
77466;SDS011;66564;42.482;25.548;2023-01-19T18:21:01;12.32;;;3.30;;
77466;SDS011;66564;42.482;25.548;2023-01-19T18:23:29;12.65;;;3.30;;
77466;SDS011;66564;42.482;25.548;2023-01-19T18:26:02;24.15;;;3.70;;